Time;durP1;ratioP1;P1;durP2;ratioP2;P2;SDS_P1;SDS_P2;PMS_P1;PMS_P2;Temp;Humidity;BMP_temperature;BMP_pressure;BME280_temperature;BME280_humidity;BME280_pressure;Samples;Min_cycle;Max_cycle;Signal;HPM_P1;HPM_P2
2023/08/28 00:01:00;;;;;;;3.17;1.40;;;;;;;;;;5053944;28;20526;-60
2023/08/28 00:03:26;;;;;;;1.77;1.20;;;;;;;;;;5053250;28;20175;-59
2023/08/28 00:05:52;;;;;;;1.98;1.30;;;;;;;;;;5053558;28;20057;-60
2023/08/28 00:08:18;;;;;;;2.58;1.40;;;;;;;;;;5053593;28;20033;-58
2023/08/28 00:10:44;;;;;;;3.05;1.33;;;;;;;;;;5053849;28;20036;-59
2023/08/28 00:13:09;;;;;;;4.82;1.50;;;;;;;;;;5052954;28;20033;-59
2023/08/28 00:15:35;;;;;;;2.40;1.35;;;;;;;;;;5053720;28;20447;-59
2023/08/28 00:18:01;;;;;;;1.90;1.20;;;;;;;;;;5053934;28;20029;-59
2023/08/28 00:20:27;;;;;;;2.78;1.40;;;;;;;;;;5053760;28;20116;-59
2023/08/28 00:22:53;;;;;;;2.35;1.50;;;;;;;;;;5053111;28;20033;-59
2023/08/28 00:25:19;;;;;;;2.35;1.30;;;;;;;;;;5053850;28;20032;-59
2023/08/28 00:27:46;;;;;;;1.98;0.98;;;;;;;;;;5053048;28;20085;-58
2023/08/28 00:30:12;;;;;;;2.80;1.38;;;;;;;;;;5053575;28;20036;-59
2023/08/28 00:32:38;;;;;;;4.18;1.38;;;;;;;;;;5053055;28;20116;-59
2023/08/28 00:35:05;;;;;;;2.22;1.20;;;;;;;;;;5053012;28;20029;-59
2023/08/28 00:37:31;;;;;;;2.42;1.17;;;;;;;;;;5053063;28;20525;-59
2023/08/28 00:39:57;;;;;;;1.60;0.90;;;;;;;;;;5053543;28;20021;-59
2023/08/28 00:42:23;;;;;;;2.45;1.20;;;;;;;;;;5052844;28;20033;-59
2023/08/28 00:44:49;;;;;;;2.05;0.95;;;;;;;;;;5053002;28;20044;-59
2023/08/28 00:47:15;;;;;;;2.00;0.85;;;;;;;;;;5054480;28;20032;-59
2023/08/28 00:49:41;;;;;;;1.55;0.90;;;;;;;;;;5056701;28;20057;-59
2023/08/28 00:52:08;;;;;;;1.88;0.73;;;;;;;;;;5056841;28;20036;-59
2023/08/28 00:54:34;;;;;;;1.52;0.93;;;;;;;;;;5057332;28;20079;-59
2023/08/28 00:57:00;;;;;;;1.40;0.80;;;;;;;;;;5057252;28;20028;-59
2023/08/28 00:59:27;;;;;;;3.30;1.17;;;;;;;;;;5056877;28;20477;-59
2023/08/28 01:01:52;;;;;;;1.33;0.75;;;;;;;;;;5056365;28;20036;-59
2023/08/28 01:04:18;;;;;;;1.52;0.80;;;;;;;;;;5056708;28;20025;-59
2023/08/28 01:06:53;;;;;;;1.95;1.15;;;;;;;;;;5056358;28;20029;-58
2023/08/28 01:09:26;;;;;;;2.78;1.33;;;;;;;;;;5056675;28;20032;-59
2023/08/28 01:12:10;;;;;;;1.52;0.82;;;;;;;;;;5056840;28;20029;-58
2023/08/28 01:14:43;;;;;;;1.67;1.10;;;;;;;;;;5056170;28;20078;-60
2023/08/28 01:17:11;;;;;;;2.42;1.20;;;;;;;;;;5057003;28;20048;-59
2023/08/28 01:19:38;;;;;;;2.05;1.38;;;;;;;;;;5055934;28;20028;-57
2023/08/28 01:22:23;;;;;;;2.65;1.27;;;;;;;;;;5055957;28;20029;-59
2023/08/28 01:24:50;;;;;;;2.97;1.25;;;;;;;;;;5056022;28;20389;-59
2023/08/28 01:27:16;;;;;;;2.33;1.27;;;;;;;;;;5055986;28;20055;-58
2023/08/28 01:29:42;;;;;;;1.80;1.23;;;;;;;;;;5056496;28;20021;-58
2023/08/28 01:32:08;;;;;;;2.88;1.58;;;;;;;;;;5056215;28;20029;-59
2023/08/28 01:34:34;;;;;;;1.73;1.13;;;;;;;;;;5056376;28;20080;-59
2023/08/28 01:37:07;;;;;;;1.85;1.20;;;;;;;;;;5055509;28;20052;-59
2023/08/28 01:39:37;;;;;;;2.03;1.48;;;;;;;;;;5056398;28;20498;-59
2023/08/28 01:42:03;;;;;;;1.88;1.23;;;;;;;;;;5055228;28;20418;-59
2023/08/28 01:44:30;;;;;;;1.85;1.00;;;;;;;;;;5055647;28;20025;-59
2023/08/28 01:46:57;;;;;;;3.30;1.30;;;;;;;;;;5056114;28;20414;-59
2023/08/28 01:49:27;;;;;;;2.20;1.60;;;;;;;;;;5056318;28;20032;-59
2023/08/28 01:51:53;;;;;;;1.75;1.10;;;;;;;;;;5055817;28;20029;-59
2023/08/28 01:54:19;;;;;;;4.05;1.60;;;;;;;;;;5055493;28;20028;-59
2023/08/28 01:56:45;;;;;;;2.15;1.02;;;;;;;;;;5055339;28;20049;-59
2023/08/28 01:59:11;;;;;;;2.35;1.70;;;;;;;;;;5055765;28;20426;-59
2023/08/28 02:01:37;;;;;;;2.40;1.42;;;;;;;;;;5056005;28;20461;-59
2023/08/28 02:04:03;;;;;;;2.08;1.40;;;;;;;;;;5055247;28;20131;-59
2023/08/28 02:06:29;;;;;;;2.22;1.30;;;;;;;;;;5055686;28;20048;-59
2023/08/28 02:08:54;;;;;;;2.50;1.30;;;;;;;;;;5055727;28;20030;-59
2023/08/28 02:11:21;;;;;;;2.00;1.10;;;;;;;;;;5055863;28;20447;-59
2023/08/28 02:13:47;;;;;;;1.90;1.20;;;;;;;;;;5055073;28;20029;-56
2023/08/28 02:16:13;;;;;;;3.30;1.38;;;;;;;;;;5055527;28;20025;-57
2023/08/28 02:18:39;;;;;;;1.90;0.98;;;;;;;;;;5054976;28;20028;-57
2023/08/28 02:21:05;;;;;;;2.13;0.95;;;;;;;;;;5055402;28;20029;-57
2023/08/28 02:23:31;;;;;;;1.98;1.38;;;;;;;;;;5054511;28;20069;-57
2023/08/28 02:25:57;;;;;;;2.50;1.50;;;;;;;;;;5054827;28;20126;-57
2023/08/28 02:28:23;;;;;;;7.13;1.20;;;;;;;;;;5054559;28;20119;-57
2023/08/28 02:30:49;;;;;;;1.55;1.05;;;;;;;;;;5055236;28;20029;-56
2023/08/28 02:33:15;;;;;;;1.77;0.93;;;;;;;;;;5055158;28;20474;-57
2023/08/28 02:35:41;;;;;;;2.22;1.00;;;;;;;;;;5054433;28;20416;-57
2023/08/28 02:38:08;;;;;;;1.75;1.02;;;;;;;;;;5054349;28;20025;-57
2023/08/28 02:40:35;;;;;;;2.53;1.30;;;;;;;;;;5054522;28;20029;-57
2023/08/28 02:43:05;;;;;;;2.28;1.05;;;;;;;;;;5054988;28;20064;-57
2023/08/28 02:45:31;;;;;;;2.50;1.02;;;;;;;;;;5054521;28;20029;-57
2023/08/28 02:47:57;;;;;;;4.85;1.40;;;;;;;;;;5054719;28;20074;-56
2023/08/28 02:50:23;;;;;;;3.08;1.20;;;;;;;;;;5054946;28;20021;-57
2023/08/28 02:52:49;;;;;;;5.00;1.60;;;;;;;;;;5054052;28;20124;-57
2023/08/28 02:55:15;;;;;;;1.60;1.02;;;;;;;;;;5054600;28;20025;-57
2023/08/28 02:57:41;;;;;;;2.17;1.30;;;;;;;;;;5053901;28;20025;-57
2023/08/28 03:00:07;;;;;;;2.95;1.35;;;;;;;;;;5053927;28;20017;-57
2023/08/28 03:02:33;;;;;;;2.17;1.13;;;;;;;;;;5054046;28;20040;-57
2023/08/28 03:04:59;;;;;;;2.88;1.65;;;;;;;;;;5054124;28;20371;-57
2023/08/28 03:07:25;;;;;;;4.18;1.20;;;;;;;;;;5054026;28;20029;-57
2023/08/28 03:09:51;;;;;;;4.18;0.90;;;;;;;;;;5053818;28;20091;-57
2023/08/28 03:12:17;;;;;;;2.75;1.55;;;;;;;;;;5054335;28;20029;-57
2023/08/28 03:14:46;;;;;;;2.30;1.10;;;;;;;;;;5053656;28;20024;-56
2023/08/28 03:17:12;;;;;;;2.20;1.25;;;;;;;;;;5053954;28;20112;-57
2023/08/28 03:19:38;;;;;;;1.52;0.98;;;;;;;;;;5054471;28;20162;-56
2023/08/28 03:22:04;;;;;;;3.08;1.65;;;;;;;;;;5053730;28;20041;-57
2023/08/28 03:24:31;;;;;;;2.17;1.13;;;;;;;;;;5054332;28;20111;-57
2023/08/28 03:26:57;;;;;;;5.00;1.50;;;;;;;;;;5053367;28;20492;-57
2023/08/28 03:29:23;;;;;;;2.03;1.35;;;;;;;;;;5054002;28;20057;-57
2023/08/28 03:31:49;;;;;;;2.08;1.13;;;;;;;;;;5053835;28;20059;-57
2023/08/28 03:34:17;;;;;;;3.85;1.42;;;;;;;;;;5053701;28;20029;-57
2023/08/28 03:36:43;;;;;;;2.45;1.30;;;;;;;;;;5053184;28;20057;-57
2023/08/28 03:39:09;;;;;;;1.98;1.05;;;;;;;;;;5054128;28;20032;-57
2023/08/28 03:41:35;;;;;;;2.85;1.58;;;;;;;;;;5053429;28;20094;-56
2023/08/28 03:44:00;;;;;;;2.05;1.40;;;;;;;;;;5053832;28;20029;-57
2023/08/28 03:46:26;;;;;;;1.98;1.48;;;;;;;;;;5053411;28;20024;-57
2023/08/28 03:48:52;;;;;;;3.35;1.67;;;;;;;;;;5053852;28;20100;-57
2023/08/28 03:51:18;;;;;;;1.67;1.05;;;;;;;;;;5053507;28;20052;-57
2023/08/28 03:53:44;;;;;;;1.90;1.17;;;;;;;;;;5053697;28;20040;-57
2023/08/28 03:56:10;;;;;;;4.00;1.08;;;;;;;;;;5053370;28;20078;-57
2023/08/28 03:58:39;;;;;;;2.40;1.30;;;;;;;;;;5053349;28;20028;-57
2023/08/28 04:01:05;;;;;;;3.72;1.73;;;;;;;;;;5053374;28;20116;-57
2023/08/28 04:03:31;;;;;;;2.53;1.52;;;;;;;;;;5053387;28;20458;-57
2023/08/28 04:06:00;;;;;;;2.22;1.42;;;;;;;;;;5053448;28;20025;-57
2023/08/28 04:08:26;;;;;;;5.85;1.98;;;;;;;;;;5053840;28;20032;-57
2023/08/28 04:10:54;;;;;;;2.75;1.63;;;;;;;;;;5053695;28;20057;-57
2023/08/28 04:13:21;;;;;;;2.28;1.63;;;;;;;;;;5053305;28;20025;-56
2023/08/28 04:15:47;;;;;;;2.30;1.27;;;;;;;;;;5053276;28;20055;-57
2023/08/28 04:18:13;;;;;;;5.65;1.98;;;;;;;;;;5052999;28;20035;-57
2023/08/28 04:20:39;;;;;;;2.50;1.40;;;;;;;;;;5054497;28;20032;-59
2023/08/28 04:23:04;;;;;;;2.35;1.48;;;;;;;;;;5057724;28;20062;-59
2023/08/28 04:25:31;;;;;;;7.82;1.75;;;;;;;;;;5057220;28;20131;-59
2023/08/28 04:27:57;;;;;;;4.32;1.90;;;;;;;;;;5057984;28;20107;-59
2023/08/28 04:30:22;;;;;;;2.10;1.42;;;;;;;;;;5057814;28;20082;-59
2023/08/28 04:32:48;;;;;;;3.03;1.70;;;;;;;;;;5056768;28;20033;-59
2023/08/28 04:35:14;;;;;;;4.30;1.77;;;;;;;;;;5056727;28;20036;-59
2023/08/28 04:37:40;;;;;;;3.60;2.22;;;;;;;;;;5056634;28;20017;-59
2023/08/28 04:40:07;;;;;;;2.63;1.48;;;;;;;;;;5057408;28;20119;-59
2023/08/28 04:42:33;;;;;;;2.47;1.60;;;;;;;;;;5056741;28;20079;-59
2023/08/28 04:44:59;;;;;;;2.30;1.50;;;;;;;;;;5056806;28;20116;-59
2023/08/28 04:47:25;;;;;;;2.28;1.55;;;;;;;;;;5057293;28;20056;-59
2023/08/28 04:49:51;;;;;;;2.67;1.50;;;;;;;;;;5056776;28;20021;-59
2023/08/28 04:52:19;;;;;;;3.53;1.60;;;;;;;;;;5056425;28;20032;-59
2023/08/28 04:54:45;;;;;;;2.70;1.70;;;;;;;;;;5056310;28;20036;-59
2023/08/28 04:57:11;;;;;;;1.98;1.48;;;;;;;;;;5056872;28;20029;-59
2023/08/28 04:59:37;;;;;;;2.63;1.73;;;;;;;;;;5056295;28;20113;-59
2023/08/28 05:02:03;;;;;;;4.07;1.60;;;;;;;;;;5056329;28;20082;-59
2023/08/28 05:04:29;;;;;;;2.42;1.67;;;;;;;;;;5056475;28;20021;-59
2023/08/28 05:06:55;;;;;;;2.40;1.60;;;;;;;;;;5056966;28;20390;-59
2023/08/28 05:09:21;;;;;;;2.90;1.70;;;;;;;;;;5056922;28;20067;-59
2023/08/28 05:11:47;;;;;;;2.65;1.80;;;;;;;;;;5056842;28;20041;-59
2023/08/28 05:14:13;;;;;;;3.05;2.03;;;;;;;;;;5056821;28;20355;-59
2023/08/28 05:16:38;;;;;;;2.05;1.48;;;;;;;;;;5055939;28;20047;-59
2023/08/28 05:19:04;;;;;;;2.58;1.77;;;;;;;;;;5056704;28;20025;-59
2023/08/28 05:21:30;;;;;;;3.00;2.17;;;;;;;;;;5056096;28;20017;-59
2023/08/28 05:23:56;;;;;;;2.33;1.88;;;;;;;;;;5056056;28;20053;-59
2023/08/28 05:26:22;;;;;;;2.60;2.25;;;;;;;;;;5055988;28;20075;-60
2023/08/28 05:28:48;;;;;;;2.88;1.75;;;;;;;;;;5056609;28;20017;-59
2023/08/28 05:31:14;;;;;;;3.25;2.78;;;;;;;;;;5056053;28;20024;-60
2023/08/28 05:33:40;;;;;;;4.38;2.75;;;;;;;;;;5055641;28;20036;-59
2023/08/28 05:36:06;;;;;;;3.47;1.92;;;;;;;;;;5055656;28;20045;-59
2023/08/28 05:38:33;;;;;;;3.88;2.15;;;;;;;;;;5056110;28;20025;-59
2023/08/28 05:40:59;;;;;;;2.78;2.13;;;;;;;;;;5056159;28;20116;-59
2023/08/28 05:43:25;;;;;;;3.40;2.15;;;;;;;;;;5055343;28;20112;-59
2023/08/28 05:45:51;;;;;;;3.83;2.80;;;;;;;;;;5055690;28;20131;-59
2023/08/28 05:48:17;;;;;;;4.43;2.63;;;;;;;;;;5055936;28;20029;-59
2023/08/28 05:50:49;;;;;;;3.47;2.72;;;;;;;;;;5055889;28;20029;-59
2023/08/28 05:53:15;;;;;;;3.38;2.60;;;;;;;;;;5055553;28;20040;-60
2023/08/28 05:55:41;;;;;;;5.15;2.95;;;;;;;;;;5055181;28;20565;-59
2023/08/28 05:58:07;;;;;;;6.88;3.50;;;;;;;;;;5055154;28;20324;-60
2023/08/28 06:00:33;;;;;;;3.72;3.15;;;;;;;;;;5055239;28;20027;-59
2023/08/28 06:02:59;;;;;;;3.33;2.58;;;;;;;;;;5054668;28;20090;-59
2023/08/28 06:05:25;;;;;;;4.40;3.40;;;;;;;;;;5055501;28;20036;-59
2023/08/28 06:07:51;;;;;;;5.53;3.45;;;;;;;;;;5055217;28;20024;-60
2023/08/28 06:10:20;;;;;;;3.60;3.13;;;;;;;;;;5055352;28;20033;-59
2023/08/28 06:12:47;;;;;;;3.88;3.03;;;;;;;;;;5054739;28;20387;-59
2023/08/28 06:15:19;;;;;;;6.03;3.45;;;;;;;;;;5054904;28;20025;-60
2023/08/28 06:17:45;;;;;;;4.93;3.42;;;;;;;;;;5055718;28;20021;-60
2023/08/28 06:20:11;;;;;;;4.75;3.85;;;;;;;;;;5055087;28;20475;-60
2023/08/28 06:22:42;;;;;;;5.20;4.55;;;;;;;;;;5054932;28;20033;-59
2023/08/28 06:25:08;;;;;;;4.43;3.58;;;;;;;;;;5055513;28;20033;-60
2023/08/28 06:27:34;;;;;;;4.47;3.67;;;;;;;;;;5054928;28;20021;-60
2023/08/28 06:30:00;;;;;;;4.75;4.05;;;;;;;;;;5054916;28;20035;-59
2023/08/28 06:32:26;;;;;;;5.03;4.28;;;;;;;;;;5055670;28;20055;-59
2023/08/28 06:34:52;;;;;;;5.97;4.55;;;;;;;;;;5054817;28;20128;-60
2023/08/28 06:37:18;;;;;;;4.30;3.70;;;;;;;;;;5055294;28;20432;-59
2023/08/28 06:39:44;;;;;;;4.70;4.05;;;;;;;;;;5055082;28;20163;-59
2023/08/28 06:42:11;;;;;;;4.82;4.30;;;;;;;;;;5054375;28;20159;-59
2023/08/28 06:44:37;;;;;;;5.22;4.72;;;;;;;;;;5053557;28;20025;-59
2023/08/28 06:47:03;;;;;;;6.20;4.13;;;;;;;;;;5054251;28;20390;-59
2023/08/28 06:49:29;;;;;;;5.78;5.22;;;;;;;;;;5055326;28;20021;-59
2023/08/28 06:51:55;;;;;;;6.88;5.53;;;;;;;;;;5054484;28;20037;-59
2023/08/28 06:54:21;;;;;;;5.72;5.15;;;;;;;;;;5054426;28;20028;-59
2023/08/28 06:56:47;;;;;;;8.57;5.22;;;;;;;;;;5054642;28;20044;-60
2023/08/28 06:59:13;;;;;;;6.95;4.85;;;;;;;;;;5055100;28;20053;-59
2023/08/28 07:01:39;;;;;;;7.22;5.28;;;;;;;;;;5054459;28;20092;-59
2023/08/28 07:04:05;;;;;;;5.55;4.95;;;;;;;;;;5052932;28;20126;-59
2023/08/28 07:06:31;;;;;;;6.03;4.70;;;;;;;;;;5054280;28;20029;-60
2023/08/28 07:08:57;;;;;;;5.05;4.55;;;;;;;;;;5054782;28;20478;-59
2023/08/28 07:11:23;;;;;;;7.45;4.30;;;;;;;;;;5054616;28;20107;-59
2023/08/28 07:13:50;;;;;;;5.82;4.78;;;;;;;;;;5053460;28;20036;-59
2023/08/28 07:16:16;;;;;;;5.10;4.57;;;;;;;;;;5053987;28;20451;-59
2023/08/28 07:18:43;;;;;;;4.72;3.95;;;;;;;;;;5053943;28;20128;-59
2023/08/28 07:21:09;;;;;;;5.03;4.53;;;;;;;;;;5054395;28;20382;-59
2023/08/28 07:23:36;;;;;;;5.13;4.63;;;;;;;;;;5054296;28;20048;-59
2023/08/28 07:26:03;;;;;;;9.65;4.93;;;;;;;;;;5053820;28;20103;-59
2023/08/28 07:28:29;;;;;;;4.32;3.92;;;;;;;;;;5053772;28;20473;-59
2023/08/28 07:30:59;;;;;;;4.65;3.85;;;;;;;;;;5054360;28;20033;-59
2023/08/28 07:33:25;;;;;;;;;;;;;;;;;;5054398;28;20479;-59
2023/08/28 07:35:51;;;;;;;6.53;3.83;;;;;;;;;;5053770;28;19916;-60
2023/08/28 07:38:17;;;;;;;5.68;4.82;;;;;;;;;;5053926;28;20033;-59
2023/08/28 07:40:43;;;;;;;5.57;4.38;;;;;;;;;;5053813;28;20116;-59
2023/08/28 07:43:09;;;;;;;4.53;4.13;;;;;;;;;;5054347;28;20119;-59
2023/08/28 07:45:35;;;;;;;4.20;3.80;;;;;;;;;;5053654;28;20035;-59
2023/08/28 07:48:02;;;;;;;5.72;4.70;;;;;;;;;;5053633;28;20029;-59
2023/08/28 07:50:30;;;;;;;5.78;4.43;;;;;;;;;;5054171;28;20455;-60
2023/08/28 07:52:56;;;;;;;6.22;4.25;;;;;;;;;;5053523;28;20029;-59
2023/08/28 07:55:22;;;;;;;4.90;4.40;;;;;;;;;;5053099;28;20554;-59
2023/08/28 07:57:48;;;;;;;4.60;4.20;;;;;;;;;;5053968;28;20052;-59
2023/08/28 08:00:20;;;;;;;4.78;3.47;;;;;;;;;;5054027;28;20394;-57
2023/08/28 08:02:46;;;;;;;4.38;3.85;;;;;;;;;;5053336;28;20077;-56
2023/08/28 08:05:12;;;;;;;3.85;3.28;;;;;;;;;;5053692;28;20025;-56
2023/08/28 08:07:42;;;;;;;4.20;3.67;;;;;;;;;;5053447;28;20029;-57
2023/08/28 08:10:09;;;;;;;5.57;3.38;;;;;;;;;;5054051;28;20053;-57
2023/08/28 08:12:35;;;;;;;4.40;3.60;;;;;;;;;;5054139;28;20071;-57
2023/08/28 08:15:01;;;;;;;3.10;2.53;;;;;;;;;;5053919;28;20032;-57
2023/08/28 08:17:27;;;;;;;6.85;3.10;;;;;;;;;;5053044;28;20021;-57
2023/08/28 08:19:54;;;;;;;4.40;2.75;;;;;;;;;;5054185;28;20450;-57
2023/08/28 08:22:19;;;;;;;2.80;2.28;;;;;;;;;;5053434;28;20033;-57
2023/08/28 08:24:45;;;;;;;4.95;2.72;;;;;;;;;;5053228;28;20459;-57
2023/08/28 08:27:11;;;;;;;2.95;2.40;;;;;;;;;;5053205;28;20489;-56
2023/08/28 08:29:37;;;;;;;3.55;2.47;;;;;;;;;;5053564;28;20025;-57
2023/08/28 08:32:03;;;;;;;2.55;1.90;;;;;;;;;;5053136;28;20028;-57
2023/08/28 08:34:32;;;;;;;3.22;2.42;;;;;;;;;;5053127;28;20036;-56
2023/08/28 08:36:58;;;;;;;4.72;2.05;;;;;;;;;;5053355;28;20077;-59
2023/08/28 08:39:24;;;;;;;2.90;2.03;;;;;;;;;;5053430;28;20103;-59
2023/08/28 08:41:50;;;;;;;2.75;2.33;;;;;;;;;;5053270;28;20500;-59
2023/08/28 08:44:16;;;;;;;4.40;2.42;;;;;;;;;;5053144;28;20032;-59
2023/08/28 08:46:44;;;;;;;5.35;2.53;;;;;;;;;;5053030;28;20025;-59
2023/08/28 08:49:13;;;;;;;3.95;2.67;;;;;;;;;;5053673;28;20033;-59
2023/08/28 08:51:41;;;;;;;3.53;2.63;;;;;;;;;;5053797;28;20061;-59
2023/08/28 08:54:09;;;;;;;3.67;2.92;;;;;;;;;;5052972;28;20029;-59
2023/08/28 08:56:36;;;;;;;7.45;3.38;;;;;;;;;;5052922;28;20074;-59
2023/08/28 08:59:03;;;;;;;3.15;2.55;;;;;;;;;;5053401;28;20112;-59
2023/08/28 09:01:30;;;;;;;7.30;2.80;;;;;;;;;;5053395;28;20447;-59
2023/08/28 09:03:56;;;;;;;2.88;2.47;;;;;;;;;;5053167;28;20033;-59
2023/08/28 09:06:22;;;;;;;6.63;2.60;;;;;;;;;;5053193;28;20036;-59
2023/08/28 09:08:48;;;;;;;3.97;2.10;;;;;;;;;;5055263;28;20025;-59
2023/08/28 09:11:14;;;;;;;4.40;3.63;;;;;;;;;;5056074;28;20597;-59
2023/08/28 09:13:42;;;;;;;3.70;2.75;;;;;;;;;;5055637;28;20029;-57
2023/08/28 09:16:08;;;;;;;3.03;2.50;;;;;;;;;;5056257;28;20052;-57
2023/08/28 09:18:34;;;;;;;3.03;2.13;;;;;;;;;;5056197;28;20029;-57
2023/08/28 09:21:07;;;;;;;3.72;2.42;;;;;;;;;;5056524;28;20032;-57
2023/08/28 09:23:33;;;;;;;3.28;2.42;;;;;;;;;;5056051;28;20497;-57
2023/08/28 09:25:59;;;;;;;3.15;2.45;;;;;;;;;;5056199;28;20033;-57
2023/08/28 09:28:25;;;;;;;2.95;1.92;;;;;;;;;;5056139;28;20036;-57
2023/08/28 09:30:51;;;;;;;3.80;2.83;;;;;;;;;;5056566;28;20029;-57
2023/08/28 09:33:17;;;;;;;4.68;2.38;;;;;;;;;;5055679;28;20032;-57
2023/08/28 09:35:44;;;;;;;3.05;2.45;;;;;;;;;;5055665;28;20045;-57
2023/08/28 09:38:10;;;;;;;3.88;2.47;;;;;;;;;;5055557;28;20029;-57
2023/08/28 09:40:37;;;;;;;3.20;2.13;;;;;;;;;;5055803;28;20029;-57
2023/08/28 09:43:14;;;;;;;2.53;1.80;;;;;;;;;;5056165;28;20033;-57
2023/08/28 09:45:40;;;;;;;12.40;3.00;;;;;;;;;;5056269;28;20390;-58
2023/08/28 09:48:07;;;;;;;2.95;2.00;;;;;;;;;;5056205;28;20032;-58
2023/08/28 09:50:34;;;;;;;4.82;2.17;;;;;;;;;;5055668;28;20037;-58
2023/08/28 09:53:07;;;;;;;3.42;2.60;;;;;;;;;;5055897;28;20120;-58
2023/08/28 09:55:36;;;;;;;2.90;1.98;;;;;;;;;;5055538;28;20033;-58
2023/08/28 09:58:07;;;;;;;3.33;1.60;;;;;;;;;;5055251;28;20025;-58
2023/08/28 10:00:34;;;;;;;3.75;1.85;;;;;;;;;;5055513;28;20119;-57
2023/08/28 10:03:00;;;;;;;2.72;1.70;;;;;;;;;;5055095;28;20414;-57
2023/08/28 10:05:26;;;;;;;2.92;1.80;;;;;;;;;;5055895;28;20029;-57
2023/08/28 10:07:55;;;;;;;2.10;1.33;;;;;;;;;;5055414;28;20025;-57
2023/08/28 10:10:21;;;;;;;2.40;1.50;;;;;;;;;;5055346;28;20489;-58
2023/08/28 10:12:48;;;;;;;3.03;1.90;;;;;;;;;;5055175;28;20029;-58
2023/08/28 10:15:14;;;;;;;2.13;1.40;;;;;;;;;;5055085;28;20347;-58
2023/08/28 10:17:41;;;;;;;2.72;1.58;;;;;;;;;;5055094;28;20029;-58
2023/08/28 10:20:09;;;;;;;2.45;1.65;;;;;;;;;;5055381;28;20030;-58
2023/08/28 10:22:35;;;;;;;1.67;1.10;;;;;;;;;;5054571;28;20559;-58
2023/08/28 10:25:02;;;;;;;3.30;1.65;;;;;;;;;;5055034;28;20108;-58
2023/08/28 10:27:28;;;;;;;2.00;1.15;;;;;;;;;;5054690;28;20463;-57
2023/08/28 10:29:54;;;;;;;2.60;1.38;;;;;;;;;;5055464;28;20029;-58
2023/08/28 10:32:21;;;;;;;2.40;1.55;;;;;;;;;;5054819;28;20031;-58
2023/08/28 10:34:47;;;;;;;3.83;1.80;;;;;;;;;;5055336;28;20355;-57
2023/08/28 10:37:14;;;;;;;3.05;2.15;;;;;;;;;;5055608;28;20144;-58
2023/08/28 10:39:41;;;;;;;3.67;1.75;;;;;;;;;;5055008;28;20048;-58
2023/08/28 10:42:09;;;;;;;2.63;1.42;;;;;;;;;;5054497;28;20387;-58
2023/08/28 10:44:35;;;;;;;2.83;1.60;;;;;;;;;;5055403;28;20032;-58
2023/08/28 10:47:01;;;;;;;2.10;1.50;;;;;;;;;;5054541;28;20040;-58
2023/08/28 10:49:28;;;;;;;2.10;1.38;;;;;;;;;;5054571;28;20021;-58
2023/08/28 10:52:05;;;;;;;3.20;1.80;;;;;;;;;;5054451;28;20064;-58
2023/08/28 10:54:38;;;;;;;2.72;1.95;;;;;;;;;;5054725;28;20116;-57
2023/08/28 10:57:10;;;;;;;1.98;1.30;;;;;;;;;;5054274;28;20021;-58
2023/08/28 10:59:46;;;;;;;1.95;1.15;;;;;;;;;;5054882;28;20021;-58
2023/08/28 11:02:12;;;;;;;3.03;1.60;;;;;;;;;;5054956;28;20029;-57
2023/08/28 11:04:39;;;;;;;2.55;1.63;;;;;;;;;;5054771;28;20029;-58
2023/08/28 11:07:09;;;;;;;2.72;1.50;;;;;;;;;;5054235;28;20032;-58
2023/08/28 11:09:35;;;;;;;2.97;2.03;;;;;;;;;;5054467;28;20028;-58
2023/08/28 11:12:01;;;;;;;3.17;1.67;;;;;;;;;;5054625;28;20046;-58
2023/08/28 11:14:27;;;;;;;3.65;1.65;;;;;;;;;;5053980;28;20021;-59
2023/08/28 11:17:06;;;;;;;1.63;1.13;;;;;;;;;;5053957;28;20459;-59
2023/08/28 11:19:32;;;;;;;1.80;1.23;;;;;;;;;;5054657;28;20035;-59
2023/08/28 11:21:58;;;;;;;2.22;1.23;;;;;;;;;;5053842;28;20037;-59
2023/08/28 11:24:24;;;;;;;2.10;1.35;;;;;;;;;;5054391;28;20025;-59
2023/08/28 11:26:50;;;;;;;1.50;0.70;;;;;;;;;;5053751;28;20418;-59
2023/08/28 11:29:26;;;;;;;1.65;0.90;;;;;;;;;;5054090;28;20021;-59
2023/08/28 11:31:52;;;;;;;2.22;1.17;;;;;;;;;;5052896;28;20523;-57
2023/08/28 11:34:18;;;;;;;2.38;1.48;;;;;;;;;;5053716;28;20029;-56
2023/08/28 11:36:45;;;;;;;1.92;0.90;;;;;;;;;;5053872;28;20049;-56
2023/08/28 11:39:22;;;;;;;2.85;1.10;;;;;;;;;;5054571;28;20031;-59
2023/08/28 11:41:48;;;;;;;2.15;1.10;;;;;;;;;;5053513;28;20064;-59
2023/08/28 11:44:15;;;;;;;1.60;1.13;;;;;;;;;;5053698;28;20140;-59
2023/08/28 11:46:41;;;;;;;1.67;0.88;;;;;;;;;;5054116;28;20021;-59
2023/08/28 11:49:07;;;;;;;1.52;0.90;;;;;;;;;;5054389;28;20017;-59
2023/08/28 11:51:33;;;;;;;1.70;0.90;;;;;;;;;;5053725;28;20017;-58
2023/08/28 11:53:59;;;;;;;1.80;1.10;;;;;;;;;;5053111;28;20035;-58
2023/08/28 11:56:25;;;;;;;1.55;1.08;;;;;;;;;;5053512;28;20035;-58
2023/08/28 11:58:54;;;;;;;2.45;0.63;;;;;;;;;;5053598;28;20111;-59
2023/08/28 12:01:20;;;;;;;5.82;1.25;;;;;;;;;;5053391;28;20064;-59
2023/08/28 12:03:46;;;;;;;2.45;1.13;;;;;;;;;;5053396;28;20032;-57
2023/08/28 12:06:17;;;;;;;2.38;1.10;;;;;;;;;;5054234;28;20021;-58
2023/08/28 12:08:44;;;;;;;;;;;;;;;;;;5054625;28;20409;-58
2023/08/28 12:11:10;;;;;;;1.50;0.80;;;;;;;;;;5053951;28;19919;-58
2023/08/28 12:13:37;;;;;;;1.63;0.75;;;;;;;;;;5053392;28;20125;-58
2023/08/28 12:16:12;;;;;;;2.17;1.00;;;;;;;;;;5053203;28;20033;-59
2023/08/28 12:18:44;;;;;;;2.28;0.77;;;;;;;;;;5053780;28;20052;-58
2023/08/28 12:21:10;;;;;;;3.22;1.08;;;;;;;;;;5053807;28;20021;-58
2023/08/28 12:23:46;;;;;;;1.67;1.02;;;;;;;;;;5053708;28;20367;-58
2023/08/28 12:26:12;;;;;;;1.50;0.90;;;;;;;;;;5052865;28;20386;-59
2023/08/28 12:28:38;;;;;;;1.90;0.90;;;;;;;;;;5052831;28;20013;-58
2023/08/28 12:31:04;;;;;;;1.55;0.95;;;;;;;;;;5053698;28;20088;-59
2023/08/28 12:33:30;;;;;;;1.90;1.17;;;;;;;;;;5053773;28;20025;-59
2023/08/28 12:35:56;;;;;;;4.15;1.05;;;;;;;;;;5053102;28;20122;-58
2023/08/28 12:38:22;;;;;;;2.00;1.15;;;;;;;;;;5053114;28;20025;-59
2023/08/28 12:40:51;;;;;;;1.77;1.10;;;;;;;;;;5053814;28;20036;-59
2023/08/28 12:43:17;;;;;;;2.25;1.17;;;;;;;;;;5055786;28;20482;-58
2023/08/28 12:45:43;;;;;;;3.95;1.05;;;;;;;;;;5057366;28;20028;-58
2023/08/28 12:48:08;;;;;;;2.30;1.40;;;;;;;;;;5056770;28;20036;-58
2023/08/28 12:50:35;;;;;;;2.40;1.27;;;;;;;;;;5057384;28;20051;-58
2023/08/28 12:53:01;;;;;;;1.38;0.88;;;;;;;;;;5057499;28;20036;-58
2023/08/28 12:55:27;;;;;;;1.10;0.70;;;;;;;;;;5056745;28;20029;-58
2023/08/28 12:57:53;;;;;;;1.67;1.05;;;;;;;;;;5057088;28;20104;-59
2023/08/28 13:00:20;;;;;;;2.13;1.00;;;;;;;;;;5056542;28;20116;-58
2023/08/28 13:02:46;;;;;;;1.73;1.05;;;;;;;;;;5056397;28;20025;-58
2023/08/28 13:05:11;;;;;;;2.92;1.30;;;;;;;;;;5056223;28;20391;-58
2023/08/28 13:07:38;;;;;;;1.77;1.02;;;;;;;;;;5057185;28;20100;-58
2023/08/28 13:10:04;;;;;;;1.92;1.10;;;;;;;;;;5057263;28;20025;-58
2023/08/28 13:12:30;;;;;;;2.25;1.48;;;;;;;;;;5056353;28;20032;-58
2023/08/28 13:14:56;;;;;;;1.75;0.90;;;;;;;;;;5056838;28;20025;-59
2023/08/28 13:17:22;;;;;;;1.65;0.95;;;;;;;;;;5056554;28;20032;-59
2023/08/28 13:19:48;;;;;;;1.63;0.93;;;;;;;;;;5056618;28;20079;-58
2023/08/28 13:22:14;;;;;;;1.70;0.90;;;;;;;;;;5056254;28;20414;-58
2023/08/28 13:24:40;;;;;;;1.75;0.85;;;;;;;;;;5056232;28;20471;-59
2023/08/28 13:27:06;;;;;;;1.83;0.80;;;;;;;;;;5056604;28;20029;-58
2023/08/28 13:29:32;;;;;;;1.83;1.10;;;;;;;;;;5056369;28;20059;-58
2023/08/28 13:31:58;;;;;;;2.00;0.90;;;;;;;;;;5056043;28;20029;-58
2023/08/28 13:34:24;;;;;;;1.75;1.10;;;;;;;;;;5056749;28;20047;-58
2023/08/28 13:36:50;;;;;;;1.52;0.88;;;;;;;;;;5056101;28;20131;-58
2023/08/28 13:39:15;;;;;;;2.92;1.38;;;;;;;;;;5056225;28;20025;-59
2023/08/28 13:41:41;;;;;;;1.67;0.85;;;;;;;;;;5055651;28;20025;-59
2023/08/28 13:44:07;;;;;;;1.67;0.75;;;;;;;;;;5056051;28;20032;-58
2023/08/28 13:46:34;;;;;;;2.63;1.10;;;;;;;;;;5055921;28;20021;-58
2023/08/28 13:49:00;;;;;;;1.55;0.60;;;;;;;;;;5056244;28;20362;-58
2023/08/28 13:51:26;;;;;;;1.98;1.05;;;;;;;;;;5055549;28;20028;-58
2023/08/28 13:53:52;;;;;;;1.95;1.00;;;;;;;;;;5055456;28;20021;-58
2023/08/28 13:56:18;;;;;;;1.13;0.63;;;;;;;;;;5055549;28;20056;-58
2023/08/28 13:58:46;;;;;;;1.25;0.60;;;;;;;;;;5055796;28;20060;-58
2023/08/28 14:01:12;;;;;;;1.83;0.90;;;;;;;;;;5055724;28;20120;-59
2023/08/28 14:03:38;;;;;;;1.55;0.68;;;;;;;;;;5055834;28;20111;-58
2023/08/28 14:06:04;;;;;;;1.45;0.80;;;;;;;;;;5055374;28;20098;-58
2023/08/28 14:08:33;;;;;;;1.15;0.50;;;;;;;;;;5055850;28;20082;-57
2023/08/28 14:11:06;;;;;;;1.17;0.55;;;;;;;;;;5055887;28;20056;-59
2023/08/28 14:13:32;;;;;;;1.90;0.60;;;;;;;;;;5055376;28;20344;-59
2023/08/28 14:15:58;;;;;;;1.40;0.70;;;;;;;;;;5055999;28;20079;-58
2023/08/28 14:18:24;;;;;;;1.35;0.60;;;;;;;;;;5055142;28;20033;-58
2023/08/28 14:20:51;;;;;;;1.58;0.60;;;;;;;;;;5055121;28;20029;-58
2023/08/28 14:23:17;;;;;;;2.30;1.00;;;;;;;;;;5055274;28;20044;-58
2023/08/28 14:25:43;;;;;;;2.55;0.93;;;;;;;;;;5054955;28;20032;-58
2023/08/28 14:28:09;;;;;;;1.95;0.93;;;;;;;;;;5055777;28;20025;-57
2023/08/28 14:30:35;;;;;;;1.45;0.55;;;;;;;;;;5054975;28;20029;-58
2023/08/28 14:33:01;;;;;;;1.55;0.65;;;;;;;;;;5054819;28;20033;-58
2023/08/28 14:35:27;;;;;;;1.30;0.77;;;;;;;;;;5055022;28;20099;-59
2023/08/28 14:37:53;;;;;;;1.33;0.80;;;;;;;;;;5055380;28;20390;-58
2023/08/28 14:40:19;;;;;;;1.42;0.60;;;;;;;;;;5055307;28;20447;-58